Terminal Aerodrome Forecast
Issued by NWS

Home | Current Version | Previous Version | Text Only | Print | Product List | Glossary On
Versions: 1 2 3 4 5 6 7 8 9 10 11 12 13 14 15 16 17 18 19 20 21 22 23 24 25 26 27 28 29 30 31 32 33 34 35 36 37
000
FTUS43 KLOT 032323
TAFDPA
TAF
KDPA 032323Z 0400/0424 04008KT P6SM VCTS SCT030 SCT050CB BKN250
      TEMPO 0400/0402 04010G15KT
     FM040200 06004KT 6SM BR SCT040
     FM040700 VRB03KT 3SM BR SCT020
      TEMPO 0409/0412 1 1/2SM BR
     FM041400 VRB03KT P6SM SCT040
     FM042200 09004KT P6SM SCT050 PROB30 0422/0424 -TSRA SCT040CB=

USA.gov is the U.S. government's official web portal to all federal, state and local government web resources and services.